createdAt,value
2019-05-16T15:11:41.730Z,60.80
2019-05-16T15:14:07.828Z,58.80
2019-05-16T15:16:33.835Z,50.60
2019-05-16T15:18:59.880Z,43.80
2019-05-16T15:21:25.903Z,38.10
2019-05-16T15:23:51.961Z,34.90
2019-05-16T15:26:18.361Z,30.90
2019-05-16T15:28:50.702Z,27.10
2019-05-16T15:31:12.519Z,27.20
2019-05-16T15:33:38.566Z,26.00
2019-05-16T15:36:04.680Z,24.90
2019-05-16T15:38:30.729Z,23.20
2019-05-16T15:41:00.263Z,21.00
2019-05-16T15:43:27.327Z,21.30
2019-05-16T15:45:53.336Z,20.40
2019-05-16T15:48:19.508Z,20.60
2019-05-16T15:50:47.896Z,20.00
2019-05-16T15:53:17.706Z,19.60
2019-05-16T15:55:47.023Z,19.10
2019-05-16T15:58:18.071Z,19.20
2019-05-16T16:00:52.608Z,18.80
2019-05-16T16:03:27.436Z,18.90
2019-05-16T16:08:50.082Z,19.00
2019-05-16T16:11:17.317Z,18.90
2019-05-16T16:13:49.978Z,18.90
2019-05-16T16:16:23.855Z,18.80
2019-05-16T16:18:49.806Z,19.50
2019-05-16T16:21:16.764Z,19.70
2019-05-16T16:23:53.681Z,20.30
2019-05-16T16:26:19.814Z,20.50
2019-05-16T16:28:45.816Z,20.40
2019-05-16T16:31:12.078Z,21.00
2019-05-16T16:33:38.095Z,22.10
2019-05-16T16:36:04.244Z,22.50
2019-05-16T16:38:32.380Z,23.20
2019-05-16T16:40:58.469Z,25.10
2019-05-16T16:43:24.557Z,26.60
2019-05-16T16:46:04.093Z,27.80
2019-05-16T16:48:18.549Z,29.10
2019-05-16T16:50:44.559Z,30.10
2019-05-16T16:53:10.721Z,31.50
2019-05-16T16:55:38.835Z,32.90
2019-05-16T16:58:04.882Z,33.90
2019-05-16T17:00:30.937Z,34.70
2019-05-16T17:03:03.245Z,35.80
2019-05-16T17:05:26.561Z,37.40
2019-05-16T17:07:52.859Z,38.50
2019-05-16T17:10:19.074Z,39.60
2019-05-16T17:12:47.033Z,40.80
2019-05-16T17:15:16.962Z,41.30
2019-05-16T17:17:42.624Z,42.10
2019-05-16T17:20:09.353Z,42.90
2019-05-16T17:22:37.365Z,43.80
2019-05-16T17:25:07.200Z,44.70
2019-05-16T17:27:33.388Z,46.00
2019-05-16T17:30:00.841Z,47.80
2019-05-16T17:32:27.514Z,49.90
2019-05-16T17:34:53.625Z,52.80
2019-05-16T17:37:19.670Z,56.30
2019-05-16T17:39:47.455Z,59.90
2019-05-16T17:42:13.615Z,62.90
2019-05-16T17:44:39.624Z,67.50
2019-05-16T17:47:07.150Z,68.30
2019-05-16T17:49:33.282Z,69.70
2019-05-16T17:52:00.073Z,71.60
2019-05-16T17:54:26.760Z,73.30
2019-05-16T17:56:53.030Z,75.80
2019-05-16T17:59:19.039Z,77.10
2019-05-16T18:01:46.295Z,79.20
2019-05-16T18:04:12.419Z,79.20
2019-05-16T18:06:38.518Z,81.40
2019-05-16T18:09:06.898Z,84.80
2019-05-16T18:11:32.921Z,87.90
2019-05-16T18:13:59.027Z,88.00
2019-05-16T18:16:25.043Z,90.00
2019-05-16T18:18:51.107Z,90.50
2019-05-16T18:21:17.158Z,92.20
2019-05-16T18:23:43.363Z,94.00
2019-05-16T18:28:07.815Z,95.90
2019-05-16T18:30:36.378Z,97.10
2019-05-16T18:33:02.138Z,98.30
2019-05-16T18:35:28.194Z,99.30
2019-05-16T18:37:54.214Z,99.90
2019-05-16T18:40:21.050Z,99.90
2019-05-16T18:42:47.652Z,99.90
2019-05-16T18:45:16.331Z,99.90
2019-05-16T18:47:42.246Z,99.90
2019-05-16T18:50:08.806Z,99.90
2019-05-16T18:52:37.477Z,99.90
2019-05-16T18:55:08.539Z,99.90
2019-05-16T18:57:34.769Z,99.90
2019-05-16T19:00:01.475Z,99.90
2019-05-16T19:02:27.738Z,99.90
2019-05-16T19:04:53.887Z,99.90
2019-05-16T19:07:19.886Z,99.90
2019-05-16T19:09:45.962Z,99.90
2019-05-16T19:12:11.971Z,99.90
2019-05-16T19:14:38.166Z,99.90
2019-05-16T19:17:17.335Z,99.90
2019-05-16T19:19:32.155Z,99.90
2019-05-16T19:21:59.574Z,99.90
2019-05-16T19:24:27.813Z,99.90
2019-05-16T19:26:54.413Z,99.90
2019-05-16T19:29:21.121Z,99.90
2019-05-16T19:31:50.278Z,99.90
2019-05-16T19:34:16.257Z,99.90
2019-05-16T19:36:43.119Z,99.90
2019-05-16T19:39:09.673Z,99.90
2019-05-16T19:41:38.611Z,99.90
2019-05-16T19:44:06.644Z,99.90
2019-05-16T19:46:32.628Z,99.90
2019-05-16T19:48:58.651Z,99.90
2019-05-16T19:51:26.782Z,99.90
2019-05-16T19:53:52.615Z,99.90
2019-05-16T19:56:18.675Z,99.90
2019-05-16T19:58:46.645Z,99.90
2019-05-16T20:01:12.626Z,99.90
2019-05-16T20:03:38.650Z,99.90
2019-05-16T20:06:04.689Z,99.90
2019-05-16T20:08:30.703Z,99.90
2019-05-16T20:10:56.823Z,99.90
2019-05-16T20:13:22.871Z,99.90
2019-05-16T20:15:48.936Z,99.90
2019-05-16T20:18:18.178Z,99.90
2019-05-16T20:20:43.968Z,99.90
2019-05-16T20:23:09.977Z,99.90
2019-05-16T20:25:36.522Z,99.90
2019-05-16T20:28:02.955Z,99.90
2019-05-16T20:30:29.000Z,99.90
2019-05-16T20:32:55.031Z,99.90
2019-05-16T20:35:22.151Z,99.90
2019-05-16T20:37:48.163Z,99.90
2019-05-16T20:40:17.130Z,99.90
2019-05-16T20:42:42.542Z,99.90
2019-05-16T20:45:08.994Z,99.90
2019-05-16T20:47:35.070Z,99.90
2019-05-16T20:50:01.761Z,99.90
2019-05-16T20:52:27.783Z,99.90
2019-05-16T20:54:53.865Z,99.90
2019-05-16T20:57:19.896Z,99.90
2019-05-16T20:59:46.316Z,99.90
2019-05-16T21:02:16.250Z,99.90
2019-05-16T21:04:41.849Z,99.90
2019-05-16T21:07:11.101Z,99.90
2019-05-16T21:09:36.907Z,99.90
2019-05-16T21:12:03.304Z,99.90
2019-05-16T21:14:29.404Z,99.90
2019-05-16T21:16:57.735Z,99.90
2019-05-16T21:19:23.385Z,99.90
2019-05-16T21:21:49.439Z,99.90
2019-05-16T21:26:41.913Z,99.90
2019-05-16T21:29:07.949Z,99.90
2019-05-16T21:31:36.757Z,99.90
2019-05-16T21:34:02.680Z,99.90
2019-05-16T21:36:28.746Z,99.90
2019-05-16T21:38:54.775Z,99.90
2019-05-16T21:41:20.876Z,99.90
2019-05-16T21:43:47.078Z,99.90
2019-05-16T21:46:13.418Z,99.90
2019-05-16T21:48:39.442Z,99.90
2019-05-16T21:51:07.674Z,99.90
2019-05-16T21:53:33.470Z,99.90
2019-05-16T21:55:59.546Z,99.90
2019-05-16T21:58:26.671Z,99.90
2019-05-16T22:00:56.718Z,99.90
2019-05-16T22:03:22.940Z,99.90
2019-05-16T22:05:48.989Z,99.90
2019-05-16T22:08:16.773Z,99.90
2019-05-16T22:10:43.086Z,99.90
2019-05-16T22:13:09.152Z,99.90
2019-05-16T22:15:36.771Z,99.90
2019-05-16T22:18:02.989Z,99.90
2019-05-16T22:20:29.045Z,99.90
2019-05-16T22:22:57.261Z,99.90
2019-05-16T22:25:23.070Z,99.90
2019-05-16T22:28:09.009Z,99.90
2019-05-16T22:30:36.578Z,99.90
2019-05-16T22:33:02.983Z,99.90
2019-05-16T22:35:28.995Z,99.90
2019-05-16T22:38:16.750Z,99.90
2019-05-16T22:40:42.835Z,99.90
2019-05-16T22:43:10.345Z,99.90
2019-05-16T22:45:37.345Z,99.90
2019-05-16T22:48:06.774Z,99.90
2019-05-16T22:50:31.967Z,99.90
2019-05-16T22:52:58.018Z,99.90
2019-05-16T22:55:26.268Z,99.90
2019-05-16T22:57:52.015Z,99.90
2019-05-16T23:00:22.955Z,99.90
2019-05-16T23:02:49.023Z,99.90
2019-05-16T23:05:16.852Z,99.90
2019-05-16T23:07:42.945Z,99.90
2019-05-16T23:10:09.184Z,99.90
2019-05-16T23:12:37.233Z,99.90
2019-05-16T23:15:06.430Z,99.90
2019-05-16T23:17:31.943Z,99.90
2019-05-16T23:19:57.995Z,99.90
2019-05-16T23:22:24.008Z,99.90
2019-05-16T23:24:50.062Z,99.90
2019-05-16T23:27:16.085Z,99.90
2019-05-16T23:29:42.119Z,99.90
2019-05-16T23:32:08.130Z,99.90
2019-05-16T23:34:34.171Z,99.90
2019-05-16T23:37:00.170Z,99.90
2019-05-16T23:39:26.316Z,99.90
2019-05-16T23:41:52.523Z,99.90
2019-05-16T23:44:18.567Z,99.90
2019-05-16T23:46:46.933Z,99.90
2019-05-16T23:49:12.487Z,99.90
2019-05-16T23:51:38.535Z,99.90
2019-05-16T23:54:06.668Z,99.90
2019-05-16T23:56:32.579Z,99.90
2019-05-16T23:58:58.588Z,99.90
